Federal Skeena — V7WS5 — position and weather

sailwx.info

Track history (hours):
 
Tides and Currents Weather Stations Pressure Air Temp Water Temp Dewpoint Dewpoint Depression Visibility Wind Speed Wind Dir Waves Ship Positions

Federal Skeena

Last reported at 2018-May-05 03:55 UTC. Time now 2018-May-26 23:22 UTC.
Position N 04°55' W 001°11'.
Warning: this ship's position is 21 days out of date.

Length 190 m; draft 10.5 m.

Type: Cargo ship. MMSI: 538004381.

Date/timePositionNaut miles runAvg speedWind from/ knotsBaromVisibWave heightAir tempDewpointWater temp
2018-May-05 03:55N 04°55' W 001°11'511.4
2018-May-05 03:28N 04°56' W 001°06'1111.1
2018-May-05 02:29N 04°57' W 000°55'611.1
2018-May-05 01:57N 04°57' W 000°49'1211.0
2018-May-05 00:54N 04°59' W 000°38'2411.3
2018-May-04 22:45N 05°06' W 000°14'411.5
2018-May-04 22:26N 05°08' W 000°11'511.1
2018-May-04 22:01N 05°11' W 000°07'611.4
2018-May-04 21:30N 05°12' W 000°02'611.4
2018-May-04 21:00N 05°13' E 000°04'611.8
2018-May-04 20:30N 05°13' E 000°10'711.6
2018-May-04 19:54N 05°15' E 000°17'511.6
2018-May-04 19:31N 05°15' E 000°21'611.5
2018-May-04 18:59N 05°17' E 000°27'611.4
2018-May-04 18:28N 05°18' E 000°33'511.6
2018-May-04 18:00N 05°19' E 000°38'3510.6
2018-May-04 14:42N 05°39' E 001°07'413.1
2018-May-04 14:26N 05°42' E 001°09'613.5
2018-May-04 14:00N 05°47' E 001°11'18 3.7
2018-May-04 09:14N 06°03' E 001°18'0 0.0
2018-May-04 03:29N 06°03' E 001°18'0 0.0
2018-May-04 01:17N 06°03' E 001°18'0 0.0
2018-May-04 00:56N 06°03' E 001°18'0 0.0
2018-May-04 00:29N 06°03' E 001°18'0 0.0
2018-May-03 23:59N 06°03' E 001°18'0 0.0
2018-May-03 23:23N 06°03' E 001°18'0 0.0
2018-May-03 21:42N 06°03' E 001°18'5 0.9
2018-May-03 16:03N 06°08' E 001°17'0 0.0
2018-May-03 15:57N 06°08' E 001°17'0 0.0
2018-May-03 15:30N 06°08' E 001°17'0 0.0
2018-May-03 15:00N 06°08' E 001°17'0 0.0
2018-May-03 14:30N 06°08' E 001°17'0 0.0
2018-May-03 14:00N 06°08' E 001°17'0 0.0
2018-May-03 13:30N 06°08' E 001°17'0 0.0
2018-May-03 13:00N 06°08' E 001°17'0 0.0
2018-May-03 12:30N 06°08' E 001°17'0 0.0
2018-May-03 11:57N 06°08' E 001°17'0 0.0
2018-May-03 11:30N 06°08' E 001°17'0 0.0
2018-May-03 10:57N 06°08' E 001°17'  
2018-Apr-27 20:20N 09°57' W 016°45'412.9
2018-Apr-27 20:00N 10°00' W 016°48'  
Track history (hours):
 
Tides and Currents Weather Stations Pressure Air Temp Water Temp Dewpoint Dewpoint Depression Visibility Wind Speed Wind Dir Waves Ship Positions

Federal Skeena

Last reported at 2018-May-05 03:55 UTC. Time now 2018-May-26 23:22 UTC.
Position N 04°55' W 001°11'.
Warning: this ship's position is 21 days out of date.

Length 190 m; draft 10.5 m.

Type: Cargo ship. MMSI: 538004381.

Date/timePositionNaut miles runAvg speedWind from/ knotsBaromVisibWave heightAir tempDewpointWater temp
2018-May-05 03:55N 04°55' W 001°11'511.4
2018-May-05 03:28N 04°56' W 001°06'1111.1
2018-May-05 02:29N 04°57' W 000°55'611.1
2018-May-05 01:57N 04°57' W 000°49'1211.0
2018-May-05 00:54N 04°59' W 000°38'2411.3
2018-May-04 22:45N 05°06' W 000°14'411.5
2018-May-04 22:26N 05°08' W 000°11'511.1
2018-May-04 22:01N 05°11' W 000°07'611.4
2018-May-04 21:30N 05°12' W 000°02'611.4
2018-May-04 21:00N 05°13' E 000°04'611.8
2018-May-04 20:30N 05°13' E 000°10'711.6
2018-May-04 19:54N 05°15' E 000°17'511.6
2018-May-04 19:31N 05°15' E 000°21'611.5
2018-May-04 18:59N 05°17' E 000°27'611.4
2018-May-04 18:28N 05°18' E 000°33'511.6
2018-May-04 18:00N 05°19' E 000°38'3510.6
2018-May-04 14:42N 05°39' E 001°07'413.1
2018-May-04 14:26N 05°42' E 001°09'613.5
2018-May-04 14:00N 05°47' E 001°11'18 3.7
2018-May-04 09:14N 06°03' E 001°18'0 0.0
2018-May-04 03:29N 06°03' E 001°18'0 0.0
2018-May-04 01:17N 06°03' E 001°18'0 0.0
2018-May-04 00:56N 06°03' E 001°18'0 0.0
2018-May-04 00:29N 06°03' E 001°18'0 0.0
2018-May-03 23:59N 06°03' E 001°18'0 0.0
2018-May-03 23:23N 06°03' E 001°18'0 0.0
2018-May-03 21:42N 06°03' E 001°18'5 0.9
2018-May-03 16:03N 06°08' E 001°17'0 0.0
2018-May-03 15:57N 06°08' E 001°17'0 0.0
2018-May-03 15:30N 06°08' E 001°17'0 0.0
2018-May-03 15:00N 06°08' E 001°17'0 0.0
2018-May-03 14:30N 06°08' E 001°17'0 0.0
2018-May-03 14:00N 06°08' E 001°17'0 0.0
2018-May-03 13:30N 06°08' E 001°17'0 0.0
2018-May-03 13:00N 06°08' E 001°17'0 0.0
2018-May-03 12:30N 06°08' E 001°17'0 0.0
2018-May-03 11:57N 06°08' E 001°17'0 0.0
2018-May-03 11:30N 06°08' E 001°17'0 0.0
2018-May-03 10:57N 06°08' E 001°17'  
2018-Apr-27 20:20N 09°57' W 016°45'412.9
2018-Apr-27 20:00N 10°00' W 016°48'  

Dump ship's entire track history